createdAt,value
2022-08-22T00:00:09.596Z,17.76
2022-08-22T00:01:10.867Z,17.78
2022-08-22T00:02:09.634Z,17.88
2022-08-22T00:02:43.755Z,19.10
2022-08-22T00:02:43.756Z,19.08
2022-08-22T00:02:55.136Z,18.72
2022-08-22T00:02:58.275Z,19.87
2022-08-22T00:03:00.889Z,19.10
2022-08-22T00:03:03.567Z,18.80
2022-08-22T00:03:08.441Z,17.88
2022-08-22T00:03:09.132Z,17.97
2022-08-22T00:03:12.457Z,18.62
2022-08-22T00:04:10.563Z,17.95
2022-08-22T00:05:09.528Z,18.00
2022-08-22T00:06:09.533Z,18.06
2022-08-22T00:07:09.496Z,18.06
2022-08-22T00:08:09.498Z,18.13
2022-08-22T00:09:09.556Z,18.17
2022-08-22T00:10:09.457Z,18.19
2022-08-22T00:11:09.582Z,18.19
2022-08-22T00:12:09.491Z,18.24
2022-08-22T00:13:09.472Z,18.27
2022-08-22T00:14:09.607Z,18.27
2022-08-22T00:15:13.238Z,18.28
2022-08-22T00:16:10.481Z,18.27
2022-08-22T00:17:09.475Z,18.27
2022-08-22T00:18:09.400Z,18.28
2022-08-22T00:19:09.458Z,18.29
2022-08-22T00:20:09.423Z,18.36
2022-08-22T00:21:09.396Z,18.33
2022-08-22T00:22:09.407Z,18.28
2022-08-22T00:23:09.436Z,18.21
2022-08-22T00:24:09.313Z,18.18
2022-08-22T00:25:24.612Z,18.15
2022-08-22T00:26:10.322Z,18.13
2022-08-22T00:27:09.268Z,18.17
2022-08-22T00:28:09.325Z,18.21
2022-08-22T00:29:09.340Z,18.24
2022-08-22T00:30:10.926Z,18.24
2022-08-22T00:31:09.256Z,18.24
2022-08-22T00:32:10.358Z,18.21
2022-08-22T00:33:09.268Z,18.25
2022-08-22T00:34:09.199Z,18.31
2022-08-22T00:35:09.279Z,18.33
2022-08-22T00:36:09.202Z,18.31
2022-08-22T00:37:09.156Z,18.28
2022-08-22T00:38:09.134Z,18.18
2022-08-22T00:39:09.124Z,18.12
2022-08-22T00:40:09.134Z,18.07
2022-08-22T00:41:09.165Z,18.02
2022-08-22T00:42:09.097Z,17.94
2022-08-22T00:43:09.061Z,17.91
2022-08-22T00:44:09.045Z,17.87
2022-08-22T00:45:09.025Z,17.82
2022-08-22T00:46:09.066Z,17.78
2022-08-22T00:47:09.021Z,17.76
2022-08-22T00:48:09.047Z,17.76
2022-08-22T00:49:08.980Z,17.74
2022-08-22T00:50:08.989Z,17.74
2022-08-22T00:51:08.996Z,17.73
2022-08-22T00:52:08.998Z,17.73
2022-08-22T00:53:08.964Z,17.71
2022-08-22T00:54:17.926Z,17.67
2022-08-22T00:55:09.930Z,17.63
2022-08-22T00:56:08.929Z,17.59
2022-08-22T00:57:08.918Z,17.54
2022-08-22T00:58:09.956Z,17.53
2022-08-22T00:59:23.256Z,17.48
2022-08-22T01:00:09.881Z,17.46
2022-08-22T01:01:08.905Z,17.43
2022-08-22T01:02:09.045Z,17.41
2022-08-22T01:03:08.839Z,17.38
2022-08-22T01:04:09.004Z,17.36
2022-08-22T01:05:08.894Z,17.36
2022-08-22T01:06:08.839Z,17.35
2022-08-22T01:07:08.932Z,17.36
2022-08-22T01:08:08.830Z,17.32
2022-08-22T01:09:08.808Z,17.33
2022-08-22T01:10:08.905Z,17.38
2022-08-22T01:11:08.975Z,17.38
2022-08-22T01:12:08.756Z,17.35
2022-08-22T01:13:08.769Z,17.33
2022-08-22T01:14:08.741Z,17.35
2022-08-22T01:15:08.735Z,17.36
2022-08-22T01:16:08.715Z,17.35
2022-08-22T01:17:08.688Z,17.32
2022-08-22T01:18:08.675Z,17.32
2022-08-22T01:19:08.668Z,17.30
2022-08-22T01:20:08.674Z,17.29
2022-08-22T01:21:08.685Z,17.28
2022-08-22T01:22:08.648Z,17.26
2022-08-22T01:23:08.627Z,17.23
2022-08-22T01:24:08.594Z,17.23
2022-08-22T01:25:08.611Z,17.22
2022-08-22T01:26:08.574Z,17.22
2022-08-22T01:27:08.564Z,17.18
2022-08-22T01:28:08.598Z,17.17
2022-08-22T01:29:10.480Z,17.15
2022-08-22T01:30:08.545Z,17.15
2022-08-22T01:31:08.518Z,17.17
2022-08-22T01:32:08.486Z,17.15
2022-08-22T01:33:08.496Z,17.13
2022-08-22T01:34:13.094Z,17.13
2022-08-22T01:35:08.457Z,17.11
2022-08-22T01:36:08.486Z,17.08
2022-08-22T01:37:08.427Z,17.07
2022-08-22T01:38:08.467Z,17.04
2022-08-22T01:39:08.421Z,17.00
2022-08-22T01:40:08.547Z,16.99
2022-08-22T01:41:10.470Z,16.98
2022-08-22T01:42:08.390Z,16.95
2022-08-22T01:43:08.398Z,16.93
2022-08-22T01:44:08.383Z,16.89
2022-08-22T01:45:08.349Z,16.86
2022-08-22T01:46:08.338Z,16.81
2022-08-22T01:47:08.345Z,16.80
2022-08-22T01:48:08.344Z,16.77
2022-08-22T01:49:08.320Z,16.75
2022-08-22T01:50:08.391Z,16.73
2022-08-22T01:51:08.282Z,16.74
2022-08-22T01:52:08.280Z,16.70
2022-08-22T01:53:08.264Z,16.68
2022-08-22T01:54:08.252Z,16.65
2022-08-22T01:55:08.241Z,16.60
2022-08-22T01:56:08.261Z,16.58
2022-08-22T01:57:08.227Z,16.52
2022-08-22T01:58:08.244Z,16.49
2022-08-22T01:59:10.032Z,16.48
2022-08-22T02:00:08.233Z,16.42
2022-08-22T02:01:08.212Z,16.40
2022-08-22T02:02:08.173Z,16.38
2022-08-22T02:03:08.154Z,16.35
2022-08-22T02:04:08.154Z,16.34
2022-08-22T02:05:08.152Z,16.33
2022-08-22T02:06:08.094Z,16.33
2022-08-22T02:07:08.084Z,16.30
2022-08-22T02:08:08.175Z,16.27
2022-08-22T02:09:08.087Z,16.26
2022-08-22T02:10:08.098Z,16.26
2022-08-22T02:11:08.057Z,16.23
2022-08-22T02:12:21.477Z,16.23
2022-08-22T02:13:09.062Z,16.23
2022-08-22T02:14:08.045Z,16.22
2022-08-22T02:15:08.015Z,16.20
2022-08-22T02:16:08.005Z,16.20
2022-08-22T02:17:07.990Z,16.18
2022-08-22T02:18:07.970Z,16.15
2022-08-22T02:19:07.998Z,16.22
2022-08-22T02:20:07.955Z,16.20
2022-08-22T02:21:07.939Z,16.20
2022-08-22T02:22:08.866Z,16.18
2022-08-22T02:23:07.910Z,16.18
2022-08-22T02:24:07.920Z,16.18
2022-08-22T02:25:08.978Z,16.22
2022-08-22T02:26:07.894Z,16.25
2022-08-22T02:27:07.859Z,16.27
2022-08-22T02:28:07.860Z,16.30
2022-08-22T02:29:07.877Z,16.33
2022-08-22T02:30:07.816Z,16.37
2022-08-22T02:31:07.808Z,16.41
2022-08-22T02:32:07.829Z,16.42
2022-08-22T02:33:07.834Z,16.42
2022-08-22T02:34:07.777Z,16.42
2022-08-22T02:35:07.847Z,16.44
2022-08-22T02:36:07.772Z,16.45
2022-08-22T02:37:07.769Z,16.49
2022-08-22T02:38:07.731Z,16.48
2022-08-22T02:39:07.755Z,16.45
2022-08-22T02:40:07.787Z,16.42
2022-08-22T02:41:07.811Z,16.41
2022-08-22T02:42:07.671Z,16.42
2022-08-22T02:43:07.730Z,16.42
2022-08-22T02:44:07.669Z,16.45
2022-08-22T02:45:07.678Z,16.45
2022-08-22T02:46:07.690Z,16.44
2022-08-22T02:47:07.612Z,16.42
2022-08-22T02:48:07.628Z,16.44
2022-08-22T02:49:07.729Z,16.42
2022-08-22T02:50:12.764Z,16.44
2022-08-22T02:51:08.662Z,16.42
2022-08-22T02:52:07.605Z,16.44
2022-08-22T02:53:07.544Z,16.41
2022-08-22T02:54:07.598Z,16.40
2022-08-22T02:55:07.555Z,16.37
2022-08-22T02:56:07.517Z,16.37
2022-08-22T02:57:14.048Z,16.42
2022-08-22T02:58:08.513Z,16.42
2022-08-22T02:59:07.518Z,16.41
2022-08-22T03:00:07.476Z,16.38
2022-08-22T03:01:08.516Z,16.34
2022-08-22T03:02:07.455Z,16.33
2022-08-22T03:03:07.466Z,16.33
2022-08-22T03:04:07.447Z,16.34
2022-08-22T03:05:07.423Z,16.33
2022-08-22T03:06:07.428Z,16.31
2022-08-22T03:07:07.486Z,16.33
2022-08-22T03:08:07.376Z,16.41
2022-08-22T03:09:07.374Z,16.48
2022-08-22T03:10:07.388Z,16.50
2022-08-22T03:11:07.336Z,16.49
2022-08-22T03:12:07.345Z,16.48
2022-08-22T03:13:07.318Z,16.48
2022-08-22T03:14:07.298Z,16.45
2022-08-22T03:15:07.292Z,16.45
2022-08-22T03:16:07.299Z,16.42
2022-08-22T03:17:07.281Z,16.41
2022-08-22T03:18:07.248Z,16.37
2022-08-22T03:19:07.228Z,16.31
2022-08-22T03:20:08.222Z,16.25
2022-08-22T03:21:07.241Z,16.22
2022-08-22T03:22:07.268Z,16.16
2022-08-22T03:23:07.179Z,16.12
2022-08-22T03:24:07.184Z,16.04
2022-08-22T03:25:07.214Z,15.97
2022-08-22T03:26:07.457Z,15.94
2022-08-22T03:27:07.259Z,15.92
2022-08-22T03:28:07.152Z,15.88
2022-08-22T03:29:07.132Z,15.85
2022-08-22T03:30:07.091Z,15.78
2022-08-22T03:31:07.135Z,15.75
2022-08-22T03:32:07.071Z,15.74
2022-08-22T03:33:07.122Z,15.70
2022-08-22T03:34:07.047Z,15.68
2022-08-22T03:35:07.062Z,15.68
2022-08-22T03:36:07.046Z,15.78
2022-08-22T03:37:07.046Z,15.88
2022-08-22T03:38:07.050Z,15.96
2022-08-22T03:39:08.315Z,15.99
2022-08-22T03:40:08.063Z,15.97
2022-08-22T03:41:06.973Z,15.94
2022-08-22T03:42:06.986Z,15.92
2022-08-22T03:43:06.984Z,15.93
2022-08-22T03:44:06.979Z,15.97
2022-08-22T03:45:07.640Z,15.97
2022-08-22T03:46:06.924Z,15.97
2022-08-22T03:47:06.915Z,15.93
2022-08-22T03:48:06.942Z,15.93
2022-08-22T03:49:06.916Z,15.96
2022-08-22T03:50:06.887Z,15.96
2022-08-22T03:51:06.895Z,15.92
2022-08-22T03:52:06.835Z,15.88
2022-08-22T03:53:06.851Z,15.89
2022-08-22T03:54:07.883Z,15.92
2022-08-22T03:55:06.813Z,15.93
2022-08-22T03:56:06.796Z,15.97
2022-08-22T03:57:07.807Z,15.97
2022-08-22T03:58:06.826Z,15.99
2022-08-22T03:59:09.945Z,15.97
2022-08-22T04:00:06.762Z,15.96
2022-08-22T04:01:06.806Z,15.94
2022-08-22T04:02:41.919Z,15.93
2022-08-22T04:03:07.748Z,15.93
2022-08-22T04:04:06.700Z,15.93
2022-08-22T04:05:06.839Z,15.93
2022-08-22T04:06:11.451Z,15.94
2022-08-22T04:07:11.149Z,15.93
2022-08-22T04:08:07.697Z,15.92
2022-08-22T04:09:06.650Z,15.92
2022-08-22T04:10:06.665Z,15.94
2022-08-22T04:11:06.619Z,16.01
2022-08-22T04:12:06.609Z,16.04
2022-08-22T04:13:06.598Z,16.06
2022-08-22T04:14:06.662Z,16.01
2022-08-22T04:15:06.570Z,16.00
2022-08-22T04:16:06.580Z,16.01
2022-08-22T04:17:06.604Z,16.01
2022-08-22T04:18:06.589Z,16.00
2022-08-22T04:19:08.066Z,15.99
2022-08-22T04:20:06.545Z,15.94
2022-08-22T04:21:06.487Z,15.89
2022-08-22T04:22:06.577Z,15.84
2022-08-22T04:23:06.462Z,15.81
2022-08-22T04:24:06.472Z,15.78
2022-08-22T04:25:08.176Z,15.74
2022-08-22T04:26:11.971Z,15.74
2022-08-22T04:27:07.455Z,15.70
2022-08-22T04:28:06.477Z,15.72
2022-08-22T04:29:06.425Z,15.70
2022-08-22T04:30:06.404Z,15.70
2022-08-22T04:31:06.494Z,15.70
2022-08-22T04:32:06.346Z,15.68
2022-08-22T04:33:06.414Z,15.68
2022-08-22T04:34:06.335Z,15.68
2022-08-22T04:35:06.383Z,15.66
2022-08-22T04:36:06.349Z,15.61
2022-08-22T04:37:06.335Z,15.57
2022-08-22T04:38:06.334Z,15.51
2022-08-22T04:39:06.285Z,15.46
2022-08-22T04:40:06.305Z,15.41
2022-08-22T04:41:06.252Z,15.33
2022-08-22T04:42:30.823Z,15.31
2022-08-22T04:43:07.246Z,15.28
2022-08-22T04:44:06.210Z,15.28
2022-08-22T04:45:06.217Z,15.27
2022-08-22T04:46:06.195Z,15.26
2022-08-22T04:47:06.213Z,15.24
2022-08-22T04:48:06.192Z,15.21
2022-08-22T04:49:06.157Z,15.23
2022-08-22T04:50:06.152Z,15.21
2022-08-22T04:51:06.179Z,15.23
2022-08-22T04:52:06.103Z,15.24
2022-08-22T04:53:06.098Z,15.23
2022-08-22T04:54:06.129Z,15.26
2022-08-22T04:55:06.072Z,15.27
2022-08-22T04:56:07.643Z,15.30
2022-08-22T04:57:06.078Z,15.31
2022-08-22T04:58:06.138Z,15.36
2022-08-22T04:59:06.044Z,15.39
2022-08-22T05:00:06.104Z,15.39
2022-08-22T05:01:06.011Z,15.45
2022-08-22T05:02:06.099Z,15.49
2022-08-22T05:03:06.004Z,15.56
2022-08-22T05:04:05.985Z,15.54
2022-08-22T05:05:13.415Z,15.57
2022-08-22T05:06:06.950Z,15.60
2022-08-22T05:07:05.970Z,15.61
2022-08-22T05:08:05.976Z,15.61
2022-08-22T05:09:05.927Z,15.63
2022-08-22T05:10:11.612Z,15.63
2022-08-22T05:11:06.915Z,15.64
2022-08-22T05:12:05.942Z,15.63
2022-08-22T05:13:05.872Z,15.61
2022-08-22T05:14:05.891Z,15.61
2022-08-22T05:15:05.856Z,15.59
2022-08-22T05:16:05.861Z,15.60
2022-08-22T05:17:05.823Z,15.61
2022-08-22T05:18:05.834Z,15.60
2022-08-22T05:19:05.814Z,15.61
2022-08-22T05:20:05.784Z,15.64
2022-08-22T05:21:07.601Z,15.66
2022-08-22T05:22:05.786Z,15.67
2022-08-22T05:23:06.045Z,15.72
2022-08-22T05:24:06.736Z,15.74
2022-08-22T05:25:05.714Z,15.76
2022-08-22T05:26:06.090Z,15.76
2022-08-22T05:27:05.705Z,15.81
2022-08-22T05:28:05.843Z,15.84
2022-08-22T05:29:05.686Z,15.88
2022-08-22T05:30:05.665Z,15.88
2022-08-22T05:31:05.650Z,15.94
2022-08-22T05:32:05.625Z,15.94
2022-08-22T05:33:05.630Z,15.97
2022-08-22T05:34:05.633Z,15.97
2022-08-22T05:35:05.625Z,16.01
2022-08-22T05:36:05.634Z,16.04
2022-08-22T05:37:07.226Z,16.07
2022-08-22T05:38:05.580Z,16.12
2022-08-22T05:39:05.546Z,16.15
2022-08-22T05:40:05.608Z,16.20
2022-08-22T05:41:05.518Z,16.25
2022-08-22T05:42:05.508Z,16.30
2022-08-22T05:43:05.497Z,16.33
2022-08-22T05:44:05.482Z,16.38
2022-08-22T05:45:05.513Z,16.38
2022-08-22T05:46:06.526Z,16.41
2022-08-22T05:47:05.459Z,16.45
2022-08-22T05:48:05.450Z,16.52
2022-08-22T05:49:05.452Z,16.56
2022-08-22T05:50:05.435Z,16.62
2022-08-22T05:51:05.429Z,16.68
2022-08-22T05:52:05.398Z,16.74
2022-08-22T05:53:05.391Z,16.80
2022-08-22T05:54:05.386Z,16.86
2022-08-22T05:55:05.359Z,16.89
2022-08-22T05:56:05.366Z,16.90
2022-08-22T05:57:07.950Z,16.98
2022-08-22T05:58:05.326Z,17.04
2022-08-22T05:59:08.173Z,17.11
2022-08-22T06:00:05.325Z,17.18
2022-08-22T06:01:05.292Z,17.29
2022-08-22T06:02:05.404Z,17.38
2022-08-22T06:03:05.295Z,17.47
2022-08-22T06:04:05.264Z,17.54
2022-08-22T06:05:09.872Z,17.64
2022-08-22T06:06:06.230Z,17.67
2022-08-22T06:07:05.246Z,17.73
2022-08-22T06:08:05.320Z,17.78
2022-08-22T06:09:05.243Z,17.81
2022-08-22T06:10:05.239Z,17.85
2022-08-22T06:11:05.181Z,17.89
2022-08-22T06:12:05.185Z,17.94
2022-08-22T06:13:05.148Z,18.03
2022-08-22T06:14:06.202Z,18.09
2022-08-22T06:15:11.984Z,18.13
2022-08-22T06:16:06.155Z,18.15
2022-08-22T06:17:05.155Z,18.13
2022-08-22T06:18:05.101Z,18.21
2022-08-22T06:19:05.172Z,18.28
2022-08-22T06:20:06.088Z,18.36
2022-08-22T06:21:05.047Z,18.40
2022-08-22T06:22:05.063Z,18.44
2022-08-22T06:23:05.030Z,18.54
2022-08-22T06:24:05.039Z,18.59
2022-08-22T06:25:05.050Z,18.64
2022-08-22T06:26:04.989Z,18.62
2022-08-22T06:27:05.034Z,18.52
2022-08-22T06:28:05.047Z,18.37
2022-08-22T06:29:05.008Z,18.36
2022-08-22T06:30:04.981Z,18.36
2022-08-22T06:31:05.009Z,18.40
2022-08-22T06:32:04.953Z,18.40
2022-08-22T06:33:04.920Z,18.40
2022-08-22T06:34:04.909Z,18.55
2022-08-22T06:35:04.900Z,18.70
2022-08-22T06:36:04.888Z,18.77
2022-08-22T06:37:04.892Z,18.87
2022-08-22T06:38:04.850Z,18.95
2022-08-22T06:39:04.851Z,19.13
2022-08-22T06:40:04.888Z,19.32
2022-08-22T06:41:04.821Z,19.24
2022-08-22T06:42:04.851Z,19.01
2022-08-22T06:43:04.783Z,18.99
2022-08-22T06:44:04.781Z,19.13
2022-08-22T06:45:04.766Z,19.13
2022-08-22T06:46:04.766Z,19.21
2022-08-22T06:47:04.754Z,19.24
2022-08-22T06:48:04.926Z,19.36
2022-08-22T06:49:04.713Z,19.51
2022-08-22T06:50:04.727Z,19.68
2022-08-22T06:51:04.705Z,19.72
2022-08-22T06:52:04.692Z,19.83
2022-08-22T06:53:04.701Z,20.00
2022-08-22T06:54:04.704Z,20.18
2022-08-22T06:55:04.645Z,20.31
2022-08-22T06:56:04.646Z,20.33
2022-08-22T06:57:04.637Z,20.33
2022-08-22T06:58:04.614Z,20.42
2022-08-22T06:59:04.645Z,20.56
2022-08-22T07:00:04.595Z,20.79
2022-08-22T07:01:12.019Z,20.81
2022-08-22T07:02:05.670Z,20.64
2022-08-22T07:03:04.566Z,20.56
2022-08-22T07:04:04.550Z,20.74
2022-08-22T07:05:04.571Z,20.83
2022-08-22T07:06:04.518Z,20.96
2022-08-22T07:07:04.517Z,21.16
2022-08-22T07:08:04.520Z,21.36
2022-08-22T07:09:05.754Z,21.54
2022-08-22T07:10:04.483Z,21.36
2022-08-22T07:11:04.519Z,21.16
2022-08-22T07:12:04.461Z,21.34
2022-08-22T07:13:04.452Z,21.48
2022-08-22T07:14:04.433Z,21.63
2022-08-22T07:15:04.435Z,21.54
2022-08-22T07:16:04.431Z,21.39
2022-08-22T07:17:04.559Z,21.44
2022-08-22T07:18:05.338Z,21.39
2022-08-22T07:19:04.370Z,21.39
2022-08-22T07:20:04.370Z,21.38
2022-08-22T07:21:04.382Z,21.32
2022-08-22T07:22:04.364Z,21.50
2022-08-22T07:23:04.341Z,21.72
2022-08-22T07:24:04.320Z,21.92
2022-08-22T07:25:04.322Z,22.01
2022-08-22T07:26:04.282Z,21.95
2022-08-22T07:27:04.814Z,22.02
2022-08-22T07:28:04.377Z,22.06
2022-08-22T07:29:06.791Z,21.83
2022-08-22T07:30:05.644Z,21.81
2022-08-22T07:31:04.235Z,21.78
2022-08-22T07:32:04.230Z,21.64
2022-08-22T07:33:26.047Z,21.67
2022-08-22T07:34:05.197Z,21.57
2022-08-22T07:35:04.177Z,21.59
2022-08-22T07:36:04.165Z,21.72
2022-08-22T07:37:04.163Z,21.83
2022-08-22T07:38:04.152Z,22.01
2022-08-22T07:39:04.157Z,22.04
2022-08-22T07:40:04.167Z,22.06
2022-08-22T07:41:04.127Z,22.04
2022-08-22T07:42:04.143Z,22.04
2022-08-22T07:43:04.077Z,22.17
2022-08-22T07:44:04.091Z,22.43
2022-08-22T07:45:04.101Z,22.64
2022-08-22T07:46:04.074Z,22.78
2022-08-22T07:47:04.056Z,23.01
2022-08-22T07:48:04.032Z,23.12
2022-08-22T07:49:09.661Z,23.29
2022-08-22T07:50:05.050Z,23.49
2022-08-22T07:51:04.062Z,23.62
2022-08-22T07:52:03.991Z,23.67
2022-08-22T07:53:03.982Z,23.77
2022-08-22T07:54:03.962Z,23.85
2022-08-22T07:55:03.951Z,23.94
2022-08-22T07:56:03.961Z,24.04
2022-08-22T07:57:03.924Z,24.08
2022-08-22T07:58:04.164Z,23.95
2022-08-22T07:59:07.986Z,23.97
2022-08-22T08:00:04.919Z,24.04
2022-08-22T08:01:03.906Z,24.22
2022-08-22T08:02:03.908Z,24.38
2022-08-22T08:03:03.872Z,24.34
2022-08-22T08:04:03.838Z,24.01
2022-08-22T08:05:03.833Z,24.04
2022-08-22T08:06:03.824Z,24.17
2022-08-22T08:07:03.870Z,24.31
2022-08-22T08:08:03.794Z,24.44
2022-08-22T08:09:03.786Z,24.59
2022-08-22T08:10:03.776Z,24.52
2022-08-22T08:11:03.769Z,24.52
2022-08-22T08:12:03.756Z,24.61
2022-08-22T08:13:03.770Z,24.64
2022-08-22T08:14:03.736Z,24.53
2022-08-22T08:15:03.719Z,24.56
2022-08-22T08:16:03.717Z,24.71
2022-08-22T08:17:03.697Z,24.87
2022-08-22T08:18:03.678Z,24.82
2022-08-22T08:19:03.698Z,24.54
2022-08-22T08:20:03.669Z,24.39
2022-08-22T08:21:03.677Z,24.44
2022-08-22T08:22:03.717Z,24.59
2022-08-22T08:23:03.649Z,24.77
2022-08-22T08:24:03.634Z,24.97
2022-08-22T08:25:03.632Z,25.12
2022-08-22T08:26:03.602Z,25.25
2022-08-22T08:27:03.580Z,25.30
2022-08-22T08:28:03.571Z,25.38
2022-08-22T08:29:03.560Z,25.20
2022-08-22T08:30:03.602Z,25.31
2022-08-22T08:31:03.536Z,25.46
2022-08-22T08:32:03.521Z,25.32
2022-08-22T08:33:24.712Z,25.25
2022-08-22T08:34:04.509Z,25.05
2022-08-22T08:35:03.481Z,25.15
2022-08-22T08:36:04.068Z,25.27
2022-08-22T08:37:03.465Z,25.43
2022-08-22T08:38:03.470Z,25.52
2022-08-22T08:39:03.444Z,25.52
2022-08-22T08:40:03.495Z,25.61
2022-08-22T08:41:03.426Z,25.69
2022-08-22T08:42:03.435Z,25.79
2022-08-22T08:43:03.401Z,25.77
2022-08-22T08:44:03.385Z,25.80
2022-08-22T08:45:03.378Z,25.62
2022-08-22T08:46:03.370Z,25.56
2022-08-22T08:47:03.357Z,25.65
2022-08-22T08:48:03.386Z,25.74
2022-08-22T08:49:06.302Z,25.83
2022-08-22T08:50:03.318Z,25.93
2022-08-22T08:51:03.307Z,25.99
2022-08-22T08:52:03.307Z,25.86
2022-08-22T08:53:03.293Z,25.71
2022-08-22T08:54:03.306Z,25.74
2022-08-22T08:55:19.829Z,25.82
2022-08-22T08:56:04.259Z,25.89
2022-08-22T08:57:03.240Z,25.90
2022-08-22T08:58:06.617Z,25.87
2022-08-22T08:59:03.243Z,25.83
2022-08-22T09:00:04.242Z,25.74
2022-08-22T09:01:03.282Z,25.82
2022-08-22T09:02:03.193Z,25.94
2022-08-22T09:03:06.863Z,25.98
2022-08-22T09:04:03.182Z,26.06
2022-08-22T09:05:03.151Z,26.27
2022-08-22T09:06:03.173Z,26.37
2022-08-22T09:07:03.122Z,26.46
2022-08-22T09:08:03.215Z,26.50
2022-08-22T09:09:03.112Z,26.61
2022-08-22T09:10:03.086Z,26.68
2022-08-22T09:11:03.090Z,26.80
2022-08-22T09:12:03.119Z,26.79
2022-08-22T09:13:11.670Z,26.83
2022-08-22T09:14:04.069Z,26.91
2022-08-22T09:15:03.038Z,26.91
2022-08-22T09:16:04.926Z,26.91
2022-08-22T09:17:03.034Z,26.83
2022-08-22T09:18:02.996Z,26.80
2022-08-22T09:19:03.007Z,26.87
2022-08-22T09:20:02.968Z,27.01
2022-08-22T09:21:03.980Z,27.09
2022-08-22T09:22:02.998Z,27.26
2022-08-22T09:23:02.974Z,27.47
2022-08-22T09:24:02.927Z,27.57
2022-08-22T09:25:06.312Z,27.48
2022-08-22T09:26:02.902Z,27.50
2022-08-22T09:27:02.919Z,27.36
2022-08-22T09:28:03.918Z,27.47
2022-08-22T09:29:02.880Z,27.53
2022-08-22T09:30:02.850Z,27.53
2022-08-22T09:31:02.860Z,27.39
2022-08-22T09:32:03.848Z,27.43
2022-08-22T09:33:02.825Z,27.50
2022-08-22T09:34:05.289Z,27.71
2022-08-22T09:35:02.827Z,27.92
2022-08-22T09:36:02.791Z,27.85
2022-08-22T09:37:02.782Z,27.76
2022-08-22T09:38:02.764Z,27.73
2022-08-22T09:39:02.743Z,27.84
2022-08-22T09:40:02.803Z,27.74
2022-08-22T09:41:02.723Z,27.85
2022-08-22T09:42:02.801Z,27.91
2022-08-22T09:43:02.880Z,27.88
2022-08-22T09:44:02.703Z,27.70
2022-08-22T09:45:02.804Z,27.76
2022-08-22T09:46:02.697Z,27.89
2022-08-22T09:47:02.654Z,27.86
2022-08-22T09:48:07.163Z,27.74
2022-08-22T09:49:05.421Z,27.76
2022-08-22T09:50:02.635Z,27.88
2022-08-22T09:51:28.312Z,27.96
2022-08-22T09:52:05.342Z,28.14
2022-08-22T09:53:03.598Z,28.29
2022-08-22T09:54:02.591Z,28.41
2022-08-22T09:55:02.568Z,28.41
2022-08-22T09:56:11.582Z,28.32
2022-08-22T09:57:03.556Z,28.10
2022-08-22T09:58:02.538Z,28.03
2022-08-22T09:59:02.528Z,27.89
2022-08-22T10:00:02.509Z,27.92
2022-08-22T10:01:02.551Z,28.10
2022-08-22T10:02:02.567Z,28.25
2022-08-22T10:03:02.651Z,28.35
2022-08-22T10:04:02.480Z,28.46
2022-08-22T10:05:02.506Z,28.58
2022-08-22T10:06:02.460Z,28.66
2022-08-22T10:07:02.439Z,28.58
2022-08-22T10:08:02.461Z,28.65
2022-08-22T10:09:02.412Z,28.68
2022-08-22T10:10:02.423Z,28.69
2022-08-22T10:11:02.413Z,28.78
2022-08-22T10:12:02.395Z,28.85
2022-08-22T10:13:02.444Z,28.78
2022-08-22T10:14:02.383Z,28.75
2022-08-22T10:15:02.348Z,28.70
2022-08-22T10:16:02.335Z,28.51
2022-08-22T10:17:02.333Z,28.56
2022-08-22T10:18:02.337Z,28.46
2022-08-22T10:19:02.308Z,28.59
2022-08-22T10:20:02.294Z,28.58
2022-08-22T10:21:02.287Z,28.72
2022-08-22T10:22:02.269Z,28.69
2022-08-22T10:23:02.625Z,28.66
2022-08-22T10:24:02.275Z,28.56
2022-08-22T10:25:03.259Z,28.62
2022-08-22T10:26:02.228Z,28.66
2022-08-22T10:27:02.218Z,28.78
2022-08-22T10:28:02.189Z,28.66
2022-08-22T10:29:02.197Z,28.65
2022-08-22T10:30:02.221Z,28.69
2022-08-22T10:31:02.185Z,28.77
2022-08-22T10:32:05.990Z,28.96
2022-08-22T10:33:03.149Z,29.15
2022-08-22T10:34:02.141Z,29.08
2022-08-22T10:35:02.121Z,29.07
2022-08-22T10:36:05.081Z,29.10
2022-08-22T10:37:02.100Z,29.15
2022-08-22T10:38:02.086Z,29.11
2022-08-22T10:39:11.071Z,29.03
2022-08-22T10:40:03.123Z,29.04
2022-08-22T10:41:02.052Z,29.03
2022-08-22T10:42:02.071Z,29.10
2022-08-22T10:43:02.032Z,29.06
2022-08-22T10:44:04.227Z,28.56
2022-08-22T10:45:02.016Z,28.77
2022-08-22T10:46:02.003Z,28.93
2022-08-22T10:47:01.984Z,28.38
2022-08-22T10:48:01.998Z,28.47
2022-08-22T10:49:08.063Z,28.70
2022-08-22T10:50:02.958Z,29.06
2022-08-22T10:51:02.947Z,29.07
2022-08-22T10:52:14.767Z,28.97
2022-08-22T10:53:02.956Z,29.22
2022-08-22T10:54:01.897Z,29.38
2022-08-22T10:55:01.899Z,28.80
2022-08-22T10:56:02.898Z,28.43
2022-08-22T10:57:01.868Z,28.44
2022-08-22T10:58:01.957Z,28.53
2022-08-22T10:59:01.868Z,28.43
2022-08-22T11:00:01.834Z,28.70
2022-08-22T11:01:01.886Z,28.82
2022-08-22T11:02:02.840Z,28.93
2022-08-22T11:03:01.956Z,29.20
2022-08-22T11:04:01.790Z,29.60
2022-08-22T11:05:01.834Z,29.89
2022-08-22T11:06:01.772Z,30.11
2022-08-22T11:07:01.770Z,30.21
2022-08-22T11:08:01.743Z,30.37
2022-08-22T11:09:01.733Z,30.36
2022-08-22T11:10:01.733Z,30.52
2022-08-22T11:11:01.754Z,30.65
2022-08-22T11:12:01.702Z,30.69
2022-08-22T11:13:01.691Z,30.69
2022-08-22T11:14:01.673Z,30.52
2022-08-22T11:15:03.066Z,30.33
2022-08-22T11:16:04.285Z,29.74
2022-08-22T11:17:01.665Z,29.75
2022-08-22T11:18:02.634Z,29.66
2022-08-22T11:19:02.834Z,29.74
2022-08-22T11:20:01.627Z,29.87
2022-08-22T11:21:01.608Z,29.99
2022-08-22T11:22:01.629Z,29.99
2022-08-22T11:23:01.687Z,30.11
2022-08-22T11:24:01.568Z,30.19
2022-08-22T11:25:04.405Z,30.16
2022-08-22T11:26:01.547Z,30.37
2022-08-22T11:27:01.543Z,30.54
2022-08-22T11:28:01.559Z,30.65
2022-08-22T11:29:11.309Z,30.75
2022-08-22T11:30:02.524Z,30.49
2022-08-22T11:31:01.492Z,30.53
2022-08-22T11:32:05.614Z,30.72
2022-08-22T11:33:01.704Z,30.89
2022-08-22T11:34:01.454Z,31.02
2022-08-22T11:35:01.463Z,30.91
2022-08-22T11:36:04.450Z,31.01
2022-08-22T11:37:01.423Z,31.13
2022-08-22T11:38:01.428Z,31.24
2022-08-22T11:39:01.424Z,31.27
2022-08-22T11:40:01.502Z,31.27
2022-08-22T11:41:01.373Z,31.40
2022-08-22T11:42:01.397Z,31.46
2022-08-22T11:43:03.143Z,31.55
2022-08-22T11:44:01.344Z,31.20
2022-08-22T11:45:01.374Z,31.17
2022-08-22T11:46:01.384Z,30.80
2022-08-22T11:47:01.324Z,30.57
2022-08-22T11:48:01.306Z,30.54
2022-08-22T11:49:01.380Z,30.61
2022-08-22T11:50:01.277Z,30.81
2022-08-22T11:51:01.288Z,31.09
2022-08-22T11:52:01.277Z,31.30
2022-08-22T11:53:01.483Z,31.33
2022-08-22T11:54:01.237Z,30.99
2022-08-22T11:55:01.229Z,31.12
2022-08-22T11:56:01.241Z,31.04
2022-08-22T11:57:01.203Z,30.86
2022-08-22T11:58:01.193Z,30.76
2022-08-22T11:59:01.179Z,30.71
2022-08-22T12:00:01.192Z,30.45
2022-08-22T12:01:01.157Z,30.07
2022-08-22T12:02:01.233Z,29.77
2022-08-22T12:03:01.385Z,29.75
2022-08-22T12:04:01.143Z,29.79
2022-08-22T12:05:01.113Z,29.87
2022-08-22T12:06:01.105Z,30.14
2022-08-22T12:07:01.099Z,30.43
2022-08-22T12:08:01.105Z,30.37
2022-08-22T12:09:01.076Z,30.30
2022-08-22T12:10:01.088Z,29.82
2022-08-22T12:11:01.058Z,29.78
2022-08-22T12:12:01.053Z,29.92
2022-08-22T12:13:01.362Z,30.14
2022-08-22T12:14:03.951Z,30.49
2022-08-22T12:15:02.022Z,30.71
2022-08-22T12:16:00.995Z,30.86
2022-08-22T12:17:00.990Z,30.99
2022-08-22T12:18:01.438Z,30.98
2022-08-22T12:19:01.001Z,30.84
2022-08-22T12:20:16.114Z,30.89
2022-08-22T12:21:01.937Z,30.87
2022-08-22T12:22:00.933Z,30.99
2022-08-22T12:23:01.146Z,30.81
2022-08-22T12:24:00.931Z,30.84
2022-08-22T12:25:03.117Z,30.84
2022-08-22T12:26:00.890Z,30.80
2022-08-22T12:27:00.880Z,30.89
2022-08-22T12:28:00.901Z,31.01
2022-08-22T12:29:00.852Z,31.09
2022-08-22T12:30:00.856Z,31.24
2022-08-22T12:31:00.872Z,31.24
2022-08-22T12:32:00.814Z,31.13
2022-08-22T12:33:01.091Z,30.96
2022-08-22T12:34:00.797Z,30.24
2022-08-22T12:35:00.801Z,30.00
2022-08-22T12:36:00.773Z,29.94
2022-08-22T12:37:00.786Z,29.92
2022-08-22T12:38:00.753Z,29.84
2022-08-22T12:39:00.742Z,29.71
2022-08-22T12:40:00.796Z,29.65
2022-08-22T12:41:00.757Z,29.77
2022-08-22T12:42:00.733Z,29.90
2022-08-22T12:43:00.724Z,29.82
2022-08-22T12:44:00.687Z,30.03